sensor_id;sensor_type;location;lat;lon;timestamp;P1;durP1;ratioP1;P2;durP2;ratioP2
40793;SDS011;26502;51.886;15.604;2022-07-01T00:02:50;15.60;;;9.50;;
40793;SDS011;26502;51.886;15.604;2022-07-01T00:07:58;12.20;;;10.00;;
40793;SDS011;26502;51.886;15.604;2022-07-01T00:13:05;12.40;;;9.10;;
40793;SDS011;26502;51.886;15.604;2022-07-01T00:18:13;11.10;;;10.00;;
40793;SDS011;26502;51.886;15.604;2022-07-01T00:23:20;11.10;;;9.90;;
40793;SDS011;26502;51.886;15.604;2022-07-01T00:28:27;10.80;;;9.50;;
40793;SDS011;26502;51.886;15.604;2022-07-01T00:33:35;10.10;;;9.10;;
40793;SDS011;26502;51.886;15.604;2022-07-01T00:38:44;10.30;;;9.30;;
40793;SDS011;26502;51.886;15.604;2022-07-01T00:43:52;9.60;;;8.50;;
40793;SDS011;26502;51.886;15.604;2022-07-01T00:49:01;9.20;;;8.40;;
40793;SDS011;26502;51.886;15.604;2022-07-01T00:54:08;11.20;;;9.80;;
40793;SDS011;26502;51.886;15.604;2022-07-01T00:59:16;10.20;;;9.30;;
40793;SDS011;26502;51.886;15.604;2022-07-01T01:04:24;10.60;;;9.40;;
40793;SDS011;26502;51.886;15.604;2022-07-01T01:09:32;12.70;;;9.40;;
40793;SDS011;26502;51.886;15.604;2022-07-01T01:14:46;10.30;;;9.30;;
40793;SDS011;26502;51.886;15.604;2022-07-01T01:19:54;11.80;;;9.10;;
40793;SDS011;26502;51.886;15.604;2022-07-01T01:25:02;9.60;;;8.60;;
40793;SDS011;26502;51.886;15.604;2022-07-01T01:30:11;15.60;;;9.60;;
40793;SDS011;26502;51.886;15.604;2022-07-01T01:35:18;10.60;;;8.50;;
40793;SDS011;26502;51.886;15.604;2022-07-01T01:40:26;10.40;;;8.60;;
40793;SDS011;26502;51.886;15.604;2022-07-01T01:50:40;9.90;;;8.70;;
40793;SDS011;26502;51.886;15.604;2022-07-01T01:55:47;11.80;;;10.20;;
40793;SDS011;26502;51.886;15.604;2022-07-01T02:00:55;15.30;;;9.50;;
40793;SDS011;26502;51.886;15.604;2022-07-01T02:06:04;12.40;;;9.00;;
40793;SDS011;26502;51.886;15.604;2022-07-01T02:11:13;11.70;;;10.00;;
40793;SDS011;26502;51.886;15.604;2022-07-01T02:16:21;12.20;;;9.50;;
40793;SDS011;26502;51.886;15.604;2022-07-01T02:21:30;10.60;;;9.50;;
40793;SDS011;26502;51.886;15.604;2022-07-01T02:26:37;11.80;;;10.50;;
40793;SDS011;26502;51.886;15.604;2022-07-01T02:31:45;10.60;;;9.40;;
40793;SDS011;26502;51.886;15.604;2022-07-01T02:36:52;14.80;;;10.50;;
40793;SDS011;26502;51.886;15.604;2022-07-01T02:41:59;13.30;;;10.70;;
40793;SDS011;26502;51.886;15.604;2022-07-01T02:47:23;12.40;;;10.90;;
40793;SDS011;26502;51.886;15.604;2022-07-01T02:52:35;12.50;;;9.50;;
40793;SDS011;26502;51.886;15.604;2022-07-01T03:02:49;10.70;;;9.60;;
40793;SDS011;26502;51.886;15.604;2022-07-01T03:07:57;11.50;;;10.50;;
40793;SDS011;26502;51.886;15.604;2022-07-01T03:13:05;10.90;;;9.80;;
40793;SDS011;26502;51.886;15.604;2022-07-01T03:18:13;11.20;;;10.10;;
40793;SDS011;26502;51.886;15.604;2022-07-01T03:23:21;12.50;;;11.00;;
40793;SDS011;26502;51.886;15.604;2022-07-01T03:28:29;14.00;;;11.10;;
40793;SDS011;26502;51.886;15.604;2022-07-01T03:33:38;13.20;;;11.70;;
40793;SDS011;26502;51.886;15.604;2022-07-01T03:38:46;12.70;;;11.50;;
40793;SDS011;26502;51.886;15.604;2022-07-01T03:43:54;13.50;;;12.00;;
40793;SDS011;26502;51.886;15.604;2022-07-01T03:49:01;14.00;;;12.10;;
40793;SDS011;26502;51.886;15.604;2022-07-01T03:54:10;19.70;;;13.00;;
40793;SDS011;26502;51.886;15.604;2022-07-01T03:59:36;14.90;;;12.80;;
40793;SDS011;26502;51.886;15.604;2022-07-01T04:04:44;14.40;;;12.90;;
40793;SDS011;26502;51.886;15.604;2022-07-01T04:09:52;14.90;;;13.30;;
40793;SDS011;26502;51.886;15.604;2022-07-01T04:15:00;14.70;;;13.20;;
40793;SDS011;26502;51.886;15.604;2022-07-01T04:20:08;16.90;;;14.30;;
40793;SDS011;26502;51.886;15.604;2022-07-01T04:25:17;16.50;;;14.20;;
40793;SDS011;26502;51.886;15.604;2022-07-01T04:30:25;14.60;;;13.00;;
40793;SDS011;26502;51.886;15.604;2022-07-01T04:35:33;15.60;;;13.90;;
40793;SDS011;26502;51.886;15.604;2022-07-01T04:40:42;18.90;;;15.60;;
40793;SDS011;26502;51.886;15.604;2022-07-01T04:46:09;18.30;;;16.50;;
40793;SDS011;26502;51.886;15.604;2022-07-01T04:51:16;16.70;;;15.10;;
40793;SDS011;26502;51.886;15.604;2022-07-01T04:56:23;19.30;;;17.20;;
40793;SDS011;26502;51.886;15.604;2022-07-01T05:01:32;19.90;;;17.80;;
40793;SDS011;26502;51.886;15.604;2022-07-01T05:11:46;22.90;;;18.00;;
40793;SDS011;26502;51.886;15.604;2022-07-01T05:16:53;21.80;;;19.90;;
40793;SDS011;26502;51.886;15.604;2022-07-01T05:22:00;21.00;;;19.00;;
40793;SDS011;26502;51.886;15.604;2022-07-01T05:27:08;19.80;;;17.90;;
40793;SDS011;26502;51.886;15.604;2022-07-01T05:32:15;20.70;;;18.70;;
40793;SDS011;26502;51.886;15.604;2022-07-01T05:37:22;20.10;;;17.90;;
40793;SDS011;26502;51.886;15.604;2022-07-01T05:42:33;20.10;;;18.00;;
40793;SDS011;26502;51.886;15.604;2022-07-01T05:47:40;19.40;;;17.50;;
40793;SDS011;26502;51.886;15.604;2022-07-01T05:52:49;19.80;;;17.90;;
40793;SDS011;26502;51.886;15.604;2022-07-01T05:57:59;20.40;;;18.50;;
40793;SDS011;26502;51.886;15.604;2022-07-01T06:03:07;20.80;;;18.60;;
40793;SDS011;26502;51.886;15.604;2022-07-01T06:08:14;19.90;;;18.20;;
40793;SDS011;26502;51.886;15.604;2022-07-01T06:13:24;19.40;;;16.90;;
40793;SDS011;26502;51.886;15.604;2022-07-01T06:23:38;19.30;;;17.50;;
40793;SDS011;26502;51.886;15.604;2022-07-01T06:28:46;20.70;;;18.50;;
40793;SDS011;26502;51.886;15.604;2022-07-01T06:33:54;21.00;;;18.40;;
40793;SDS011;26502;51.886;15.604;2022-07-01T06:39:03;22.00;;;18.50;;
40793;SDS011;26502;51.886;15.604;2022-07-01T06:44:11;20.20;;;18.20;;
40793;SDS011;26502;51.886;15.604;2022-07-01T06:49:18;19.20;;;17.20;;
40793;SDS011;26502;51.886;15.604;2022-07-01T06:54:25;18.10;;;16.40;;
40793;SDS011;26502;51.886;15.604;2022-07-01T06:59:33;19.80;;;17.40;;
40793;SDS011;26502;51.886;15.604;2022-07-01T07:04:41;19.40;;;16.60;;
40793;SDS011;26502;51.886;15.604;2022-07-01T07:09:48;17.80;;;16.00;;
40793;SDS011;26502;51.886;15.604;2022-07-01T07:20:01;16.70;;;15.30;;
40793;SDS011;26502;51.886;15.604;2022-07-01T07:25:10;20.20;;;16.00;;
40793;SDS011;26502;51.886;15.604;2022-07-01T07:30:18;15.50;;;13.90;;
40793;SDS011;26502;51.886;15.604;2022-07-01T07:35:26;16.50;;;14.90;;
40793;SDS011;26502;51.886;15.604;2022-07-01T07:45:39;17.90;;;15.00;;
40793;SDS011;26502;51.886;15.604;2022-07-01T07:50:46;17.00;;;15.10;;
40793;SDS011;26502;51.886;15.604;2022-07-01T08:00:59;16.70;;;14.00;;
40793;SDS011;26502;51.886;15.604;2022-07-01T08:06:07;16.50;;;13.00;;
40793;SDS011;26502;51.886;15.604;2022-07-01T08:11:15;16.70;;;13.40;;
40793;SDS011;26502;51.886;15.604;2022-07-01T08:16:22;18.00;;;14.00;;
40793;SDS011;26502;51.886;15.604;2022-07-01T08:21:30;16.40;;;13.00;;
40793;SDS011;26502;51.886;15.604;2022-07-01T08:31:43;11.20;;;10.10;;
40793;SDS011;26502;51.886;15.604;2022-07-01T08:36:50;16.40;;;12.50;;
40793;SDS011;26502;51.886;15.604;2022-07-01T08:47:03;12.20;;;10.50;;
40793;SDS011;26502;51.886;15.604;2022-07-01T08:52:15;12.40;;;11.00;;
40793;SDS011;26502;51.886;15.604;2022-07-01T08:57:23;14.10;;;10.70;;
40793;SDS011;26502;51.886;15.604;2022-07-01T09:08:03;14.10;;;10.50;;
40793;SDS011;26502;51.886;15.604;2022-07-01T09:13:12;11.70;;;10.60;;
40793;SDS011;26502;51.886;15.604;2022-07-01T09:18:20;12.60;;;11.30;;
40793;SDS011;26502;51.886;15.604;2022-07-01T09:23:27;12.70;;;11.50;;
40793;SDS011;26502;51.886;15.604;2022-07-01T09:28:38;13.90;;;12.30;;
40793;SDS011;26502;51.886;15.604;2022-07-01T09:33:45;13.20;;;11.90;;
40793;SDS011;26502;51.886;15.604;2022-07-01T09:39:07;13.30;;;11.60;;
40793;SDS011;26502;51.886;15.604;2022-07-01T09:44:15;12.60;;;10.80;;
40793;SDS011;26502;51.886;15.604;2022-07-01T09:49:22;12.10;;;11.00;;
40793;SDS011;26502;51.886;15.604;2022-07-01T09:54:30;14.50;;;11.40;;
40793;SDS011;26502;51.886;15.604;2022-07-01T09:59:38;15.30;;;12.00;;
40793;SDS011;26502;51.886;15.604;2022-07-01T10:04:48;14.90;;;12.80;;
40793;SDS011;26502;51.886;15.604;2022-07-01T10:10:00;16.20;;;14.40;;
40793;SDS011;26502;51.886;15.604;2022-07-01T10:15:16;16.50;;;15.00;;
40793;SDS011;26502;51.886;15.604;2022-07-01T10:20:26;18.80;;;16.90;;
40793;SDS011;26502;51.886;15.604;2022-07-01T10:25:39;18.70;;;17.00;;
40793;SDS011;26502;51.886;15.604;2022-07-01T10:30:58;18.40;;;16.50;;
40793;SDS011;26502;51.886;15.604;2022-07-01T10:36:08;19.00;;;17.20;;
40793;SDS011;26502;51.886;15.604;2022-07-01T10:41:24;20.00;;;17.80;;
40793;SDS011;26502;51.886;15.604;2022-07-01T10:46:40;22.90;;;16.70;;
40793;SDS011;26502;51.886;15.604;2022-07-01T10:51:49;21.10;;;15.50;;
40793;SDS011;26502;51.886;15.604;2022-07-01T10:56:57;16.10;;;14.60;;
40793;SDS011;26502;51.886;15.604;2022-07-01T11:02:32;14.00;;;12.10;;
40793;SDS011;26502;51.886;15.604;2022-07-01T11:07:40;13.40;;;12.20;;
40793;SDS011;26502;51.886;15.604;2022-07-01T11:12:49;12.00;;;10.60;;
40793;SDS011;26502;51.886;15.604;2022-07-01T11:17:58;12.60;;;11.30;;
40793;SDS011;26502;51.886;15.604;2022-07-01T11:23:05;12.80;;;10.70;;
40793;SDS011;26502;51.886;15.604;2022-07-01T11:28:13;16.50;;;11.80;;
40793;SDS011;26502;51.886;15.604;2022-07-01T11:33:20;12.40;;;11.10;;
40793;SDS011;26502;51.886;15.604;2022-07-01T11:38:29;12.30;;;10.70;;
40793;SDS011;26502;51.886;15.604;2022-07-01T11:43:53;12.30;;;10.00;;
40793;SDS011;26502;51.886;15.604;2022-07-01T11:49:01;16.70;;;9.90;;
40793;SDS011;26502;51.886;15.604;2022-07-01T11:54:21;12.60;;;10.00;;
40793;SDS011;26502;51.886;15.604;2022-07-01T11:59:28;12.10;;;8.90;;
40793;SDS011;26502;51.886;15.604;2022-07-01T12:04:37;12.30;;;8.40;;
40793;SDS011;26502;51.886;15.604;2022-07-01T12:09:44;12.80;;;9.20;;
40793;SDS011;26502;51.886;15.604;2022-07-01T12:14:52;21.20;;;11.80;;
40793;SDS011;26502;51.886;15.604;2022-07-01T12:20:01;11.30;;;10.30;;
40793;SDS011;26502;51.886;15.604;2022-07-01T12:25:09;22.00;;;9.30;;
40793;SDS011;26502;51.886;15.604;2022-07-01T12:30:24;16.40;;;7.40;;
40793;SDS011;26502;51.886;15.604;2022-07-01T12:35:37;20.70;;;8.80;;
40793;SDS011;26502;51.886;15.604;2022-07-01T12:40:47;14.90;;;7.90;;
40793;SDS011;26502;51.886;15.604;2022-07-01T12:51:01;22.30;;;6.80;;
40793;SDS011;26502;51.886;15.604;2022-07-01T12:56:07;14.50;;;7.20;;
40793;SDS011;26502;51.886;15.604;2022-07-01T13:01:27;11.80;;;6.80;;
40793;SDS011;26502;51.886;15.604;2022-07-01T13:06:34;31.90;;;6.90;;
40793;SDS011;26502;51.886;15.604;2022-07-01T13:11:41;10.50;;;6.30;;
40793;SDS011;26502;51.886;15.604;2022-07-01T13:16:49;21.10;;;7.20;;
40793;SDS011;26502;51.886;15.604;2022-07-01T13:21:56;11.30;;;7.60;;
40793;SDS011;26502;51.886;15.604;2022-07-01T13:27:06;11.50;;;7.90;;
40793;SDS011;26502;51.886;15.604;2022-07-01T13:32:13;13.50;;;8.70;;
40793;SDS011;26502;51.886;15.604;2022-07-01T13:43:16;12.80;;;9.70;;
40793;SDS011;26502;51.886;15.604;2022-07-01T13:48:30;12.00;;;9.00;;
40793;SDS011;26502;51.886;15.604;2022-07-01T13:53:42;15.60;;;7.90;;
40793;SDS011;26502;51.886;15.604;2022-07-01T13:58:57;9.70;;;8.70;;
40793;SDS011;26502;51.886;15.604;2022-07-01T14:04:08;10.40;;;7.90;;
40793;SDS011;26502;51.886;15.604;2022-07-01T14:09:21;8.30;;;7.60;;
40793;SDS011;26502;51.886;15.604;2022-07-01T14:14:33;7.20;;;6.30;;
40793;SDS011;26502;51.886;15.604;2022-07-01T14:19:44;7.40;;;6.20;;
40793;SDS011;26502;51.886;15.604;2022-07-01T14:24:56;5.50;;;5.00;;
40793;SDS011;26502;51.886;15.604;2022-07-01T14:30:12;5.70;;;4.00;;
40793;SDS011;26502;51.886;15.604;2022-07-01T14:35:25;5.60;;;4.00;;
40793;SDS011;26502;51.886;15.604;2022-07-01T14:40:32;3.60;;;3.30;;
40793;SDS011;26502;51.886;15.604;2022-07-01T14:45:46;2.90;;;2.60;;
40793;SDS011;26502;51.886;15.604;2022-07-01T14:50:57;6.50;;;2.70;;
40793;SDS011;26502;51.886;15.604;2022-07-01T14:56:34;3.20;;;2.30;;
40793;SDS011;26502;51.886;15.604;2022-07-01T15:01:47;2.70;;;2.50;;
40793;SDS011;26502;51.886;15.604;2022-07-01T15:07:03;2.10;;;1.90;;
40793;SDS011;26502;51.886;15.604;2022-07-01T15:12:14;2.20;;;2.10;;
40793;SDS011;26502;51.886;15.604;2022-07-01T15:17:40;1.70;;;1.60;;
40793;SDS011;26502;51.886;15.604;2022-07-01T15:22:59;2.50;;;2.00;;
40793;SDS011;26502;51.886;15.604;2022-07-01T15:28:20;2.30;;;1.70;;
40793;SDS011;26502;51.886;15.604;2022-07-01T15:33:44;4.70;;;2.20;;
40793;SDS011;26502;51.886;15.604;2022-07-01T15:38:57;3.30;;;2.10;;
40793;SDS011;26502;51.886;15.604;2022-07-01T15:44:15;3.30;;;1.90;;
40793;SDS011;26502;51.886;15.604;2022-07-01T15:49:32;2.50;;;1.60;;
40793;SDS011;26502;51.886;15.604;2022-07-01T15:54:45;3.90;;;2.00;;
40793;SDS011;26502;51.886;15.604;2022-07-01T15:59:57;2.00;;;1.90;;
40793;SDS011;26502;51.886;15.604;2022-07-01T16:05:17;1.20;;;1.20;;
40793;SDS011;26502;51.886;15.604;2022-07-01T16:10:42;1.80;;;1.70;;
40793;SDS011;26502;51.886;15.604;2022-07-01T16:16:16;1.50;;;1.40;;
40793;SDS011;26502;51.886;15.604;2022-07-01T16:21:45;1.60;;;1.50;;
40793;SDS011;26502;51.886;15.604;2022-07-01T16:26:56;1.80;;;1.60;;
40793;SDS011;26502;51.886;15.604;2022-07-01T16:32:27;1.60;;;1.50;;
40793;SDS011;26502;51.886;15.604;2022-07-01T16:37:55;1.90;;;1.50;;
40793;SDS011;26502;51.886;15.604;2022-07-01T16:43:08;1.40;;;1.40;;
40793;SDS011;26502;51.886;15.604;2022-07-01T16:48:40;3.60;;;1.40;;
40793;SDS011;26502;51.886;15.604;2022-07-01T16:53:58;1.40;;;1.40;;
40793;SDS011;26502;51.886;15.604;2022-07-01T16:59:13;1.60;;;1.50;;
40793;SDS011;26502;51.886;15.604;2022-07-01T17:04:50;1.60;;;1.50;;
40793;SDS011;26502;51.886;15.604;2022-07-01T17:10:16;3.50;;;1.60;;
40793;SDS011;26502;51.886;15.604;2022-07-01T17:15:46;1.80;;;1.70;;
40793;SDS011;26502;51.886;15.604;2022-07-01T17:21:08;1.80;;;1.70;;
40793;SDS011;26502;51.886;15.604;2022-07-01T17:26:25;1.80;;;1.70;;
40793;SDS011;26502;51.886;15.604;2022-07-01T17:31:48;1.40;;;1.40;;
40793;SDS011;26502;51.886;15.604;2022-07-01T17:37:17;2.20;;;1.80;;
40793;SDS011;26502;51.886;15.604;2022-07-01T17:42:52;1.90;;;1.80;;
40793;SDS011;26502;51.886;15.604;2022-07-01T17:48:07;1.50;;;1.50;;
40793;SDS011;26502;51.886;15.604;2022-07-01T17:53:30;2.00;;;1.70;;
40793;SDS011;26502;51.886;15.604;2022-07-01T17:58:47;1.80;;;1.70;;
40793;SDS011;26502;51.886;15.604;2022-07-01T18:04:03;1.70;;;1.60;;
40793;SDS011;26502;51.886;15.604;2022-07-01T18:09:39;1.80;;;1.70;;
40793;SDS011;26502;51.886;15.604;2022-07-01T18:14:55;1.90;;;1.60;;
40793;SDS011;26502;51.886;15.604;2022-07-01T18:20:24;2.20;;;2.00;;
40793;SDS011;26502;51.886;15.604;2022-07-01T18:26:05;4.30;;;1.90;;
40793;SDS011;26502;51.886;15.604;2022-07-01T18:31:34;1.80;;;1.70;;
40793;SDS011;26502;51.886;15.604;2022-07-01T18:37:02;1.70;;;1.60;;
40793;SDS011;26502;51.886;15.604;2022-07-01T18:42:15;2.00;;;1.70;;
40793;SDS011;26502;51.886;15.604;2022-07-01T18:47:32;1.70;;;1.60;;
40793;SDS011;26502;51.886;15.604;2022-07-01T18:53:01;2.60;;;1.80;;
40793;SDS011;26502;51.886;15.604;2022-07-01T18:58:19;1.60;;;1.50;;
40793;SDS011;26502;51.886;15.604;2022-07-01T19:04:13;1.80;;;1.70;;
40793;SDS011;26502;51.886;15.604;2022-07-01T19:09:57;2.50;;;1.40;;
40793;SDS011;26502;51.886;15.604;2022-07-01T19:15:13;1.70;;;1.60;;
40793;SDS011;26502;51.886;15.604;2022-07-01T19:20:26;1.70;;;1.60;;
40793;SDS011;26502;51.886;15.604;2022-07-01T19:25:50;1.80;;;1.70;;
40793;SDS011;26502;51.886;15.604;2022-07-01T19:31:12;4.00;;;2.40;;
40793;SDS011;26502;51.886;15.604;2022-07-01T19:36:34;2.70;;;2.40;;
40793;SDS011;26502;51.886;15.604;2022-07-01T19:41:45;2.40;;;2.10;;
40793;SDS011;26502;51.886;15.604;2022-07-01T19:47:01;2.20;;;2.00;;
40793;SDS011;26502;51.886;15.604;2022-07-01T19:52:35;2.80;;;2.20;;
40793;SDS011;26502;51.886;15.604;2022-07-01T19:57:56;2.20;;;2.00;;
40793;SDS011;26502;51.886;15.604;2022-07-01T20:03:10;5.70;;;2.80;;
40793;SDS011;26502;51.886;15.604;2022-07-01T20:08:23;2.10;;;2.00;;
40793;SDS011;26502;51.886;15.604;2022-07-01T20:13:47;2.80;;;2.50;;
40793;SDS011;26502;51.886;15.604;2022-07-01T20:20:05;2.70;;;2.50;;
40793;SDS011;26502;51.886;15.604;2022-07-01T20:25:32;2.90;;;2.70;;
40793;SDS011;26502;51.886;15.604;2022-07-01T20:31:07;2.90;;;2.70;;
40793;SDS011;26502;51.886;15.604;2022-07-01T20:36:43;3.60;;;3.00;;
40793;SDS011;26502;51.886;15.604;2022-07-01T20:41:59;3.80;;;3.30;;
40793;SDS011;26502;51.886;15.604;2022-07-01T20:47:13;6.20;;;3.90;;
40793;SDS011;26502;51.886;15.604;2022-07-01T20:52:33;3.10;;;2.90;;
40793;SDS011;26502;51.886;15.604;2022-07-01T20:58:08;3.90;;;3.30;;
40793;SDS011;26502;51.886;15.604;2022-07-01T21:03:24;3.70;;;3.40;;
40793;SDS011;26502;51.886;15.604;2022-07-01T21:08:48;4.40;;;3.40;;
40793;SDS011;26502;51.886;15.604;2022-07-01T21:14:04;3.70;;;3.40;;
40793;SDS011;26502;51.886;15.604;2022-07-01T21:19:58;3.80;;;3.60;;
40793;SDS011;26502;51.886;15.604;2022-07-01T21:25:14;3.80;;;3.50;;
40793;SDS011;26502;51.886;15.604;2022-07-01T21:30:46;3.50;;;3.20;;
40793;SDS011;26502;51.886;15.604;2022-07-01T21:36:05;4.40;;;3.30;;
40793;SDS011;26502;51.886;15.604;2022-07-01T21:41:27;3.60;;;3.30;;
40793;SDS011;26502;51.886;15.604;2022-07-01T21:46:44;5.80;;;3.00;;
40793;SDS011;26502;51.886;15.604;2022-07-01T21:52:14;3.60;;;2.70;;
40793;SDS011;26502;51.886;15.604;2022-07-01T21:57:30;3.30;;;3.00;;
40793;SDS011;26502;51.886;15.604;2022-07-01T22:02:58;3.60;;;3.10;;
40793;SDS011;26502;51.886;15.604;2022-07-01T22:08:14;4.00;;;3.00;;
40793;SDS011;26502;51.886;15.604;2022-07-01T22:13:27;5.10;;;3.10;;
40793;SDS011;26502;51.886;15.604;2022-07-01T22:19:01;6.80;;;3.20;;
40793;SDS011;26502;51.886;15.604;2022-07-01T22:24:41;2.80;;;2.60;;
40793;SDS011;26502;51.886;15.604;2022-07-01T22:30:15;4.80;;;2.70;;
40793;SDS011;26502;51.886;15.604;2022-07-01T22:35:31;3.10;;;2.80;;
40793;SDS011;26502;51.886;15.604;2022-07-01T22:40:58;3.40;;;2.40;;
40793;SDS011;26502;51.886;15.604;2022-07-01T22:46:19;4.50;;;2.40;;
40793;SDS011;26502;51.886;15.604;2022-07-01T22:51:44;2.90;;;2.60;;
40793;SDS011;26502;51.886;15.604;2022-07-01T22:57:40;3.40;;;2.60;;
40793;SDS011;26502;51.886;15.604;2022-07-01T23:03:11;2.90;;;2.70;;
40793;SDS011;26502;51.886;15.604;2022-07-01T23:08:34;3.20;;;2.70;;
40793;SDS011;26502;51.886;15.604;2022-07-01T23:14:02;5.40;;;3.00;;
40793;SDS011;26502;51.886;15.604;2022-07-01T23:19:42;2.90;;;2.60;;
40793;SDS011;26502;51.886;15.604;2022-07-01T23:25:29;4.70;;;2.80;;
40793;SDS011;26502;51.886;15.604;2022-07-01T23:30:59;4.10;;;3.00;;
40793;SDS011;26502;51.886;15.604;2022-07-01T23:36:24;4.40;;;3.30;;
40793;SDS011;26502;51.886;15.604;2022-07-01T23:41:40;5.30;;;3.20;;
40793;SDS011;26502;51.886;15.604;2022-07-01T23:46:56;3.00;;;2.70;;
40793;SDS011;26502;51.886;15.604;2022-07-01T23:52:35;3.40;;;3.20;;
40793;SDS011;26502;51.886;15.604;2022-07-01T23:57:51;3.80;;;3.20;;
